sensor_id;sensor_type;location;lat;lon;timestamp;pressure;altitude;pressure_sealevel;temperature;humidity
63439;BME280;49567;48.958;8.294;2023-05-23T00:01:49;100198.78;;;21.92;65.48
63439;BME280;49567;48.958;8.294;2023-05-23T00:04:14;100196.47;;;21.86;65.60
63439;BME280;49567;48.958;8.294;2023-05-23T00:06:43;100196.31;;;21.82;65.71
63439;BME280;49567;48.958;8.294;2023-05-23T00:09:15;100192.91;;;21.85;65.66
63439;BME280;49567;48.958;8.294;2023-05-23T00:11:40;100194.38;;;21.83;65.71
63439;BME280;49567;48.958;8.294;2023-05-23T00:14:13;100193.88;;;21.81;65.72
63439;BME280;49567;48.958;8.294;2023-05-23T00:16:40;100194.84;;;21.85;65.52
63439;BME280;49567;48.958;8.294;2023-05-23T00:19:05;100206.22;;;21.83;65.53
63439;BME280;49567;48.958;8.294;2023-05-23T00:21:31;100201.00;;;21.82;65.46
63439;BME280;49567;48.958;8.294;2023-05-23T00:23:57;100202.31;;;21.76;65.63
63439;BME280;49567;48.958;8.294;2023-05-23T00:26:22;100205.88;;;21.67;65.83
63439;BME280;49567;48.958;8.294;2023-05-23T00:28:48;100213.50;;;21.62;65.98
63439;BME280;49567;48.958;8.294;2023-05-23T00:31:13;100205.88;;;21.59;66.04
63439;BME280;49567;48.958;8.294;2023-05-23T00:33:38;100206.19;;;21.57;66.00
63439;BME280;49567;48.958;8.294;2023-05-23T00:36:04;100213.81;;;21.52;66.24
63439;BME280;49567;48.958;8.294;2023-05-23T00:38:30;100210.09;;;21.48;66.34
63439;BME280;49567;48.958;8.294;2023-05-23T00:40:55;100202.81;;;21.52;66.21
63439;BME280;49567;48.958;8.294;2023-05-23T00:43:20;100211.25;;;21.55;66.11
63439;BME280;49567;48.958;8.294;2023-05-23T00:45:47;100202.97;;;21.55;66.13
63439;BME280;49567;48.958;8.294;2023-05-23T00:48:13;100204.59;;;21.56;66.19
63439;BME280;49567;48.958;8.294;2023-05-23T00:50:39;100208.47;;;21.55;66.24
63439;BME280;49567;48.958;8.294;2023-05-23T00:53:04;100207.66;;;21.55;66.38
63439;BME280;49567;48.958;8.294;2023-05-23T00:55:31;100208.78;;;21.54;66.34
63439;BME280;49567;48.958;8.294;2023-05-23T00:57:57;100215.63;;;21.56;66.36
63439;BME280;49567;48.958;8.294;2023-05-23T01:00:23;100219.19;;;21.57;66.48
63439;BME280;49567;48.958;8.294;2023-05-23T01:02:49;100225.66;;;21.61;66.25
63439;BME280;49567;48.958;8.294;2023-05-23T01:05:19;100226.00;;;21.59;66.41
63439;BME280;49567;48.958;8.294;2023-05-23T01:07:47;100220.63;;;21.54;66.54
63439;BME280;49567;48.958;8.294;2023-05-23T01:10:14;100216.25;;;21.45;66.76
63439;BME280;49567;48.958;8.294;2023-05-23T01:15:10;100218.66;;;21.29;67.15
63439;BME280;49567;48.958;8.294;2023-05-23T01:17:54;100212.69;;;21.27;66.97
63439;BME280;49567;48.958;8.294;2023-05-23T01:20:25;100216.53;;;21.17;67.27
63439;BME280;49567;48.958;8.294;2023-05-23T01:28:19;100211.81;;;21.09;67.40
63439;BME280;49567;48.958;8.294;2023-05-23T01:30:47;100212.25;;;21.03;67.55
63439;BME280;49567;48.958;8.294;2023-05-23T01:33:15;100218.06;;;20.93;67.96
63439;BME280;49567;48.958;8.294;2023-05-23T01:35:42;100217.75;;;20.94;67.89
63439;BME280;49567;48.958;8.294;2023-05-23T01:38:08;100210.63;;;20.93;67.80
63439;BME280;49567;48.958;8.294;2023-05-23T01:40:35;100222.75;;;20.92;67.83
63439;BME280;49567;48.958;8.294;2023-05-23T01:43:00;100216.75;;;20.90;67.81
63439;BME280;49567;48.958;8.294;2023-05-23T01:45:27;100222.56;;;20.89;68.08
63439;BME280;49567;48.958;8.294;2023-05-23T01:47:53;100226.97;;;20.98;67.76
63439;BME280;49567;48.958;8.294;2023-05-23T01:50:20;100225.22;;;21.02;67.52
63439;BME280;49567;48.958;8.294;2023-05-23T01:52:46;100224.41;;;21.02;67.72
63439;BME280;49567;48.958;8.294;2023-05-23T01:55:13;100222.16;;;21.04;67.41
63439;BME280;49567;48.958;8.294;2023-05-23T01:57:40;100225.19;;;20.94;67.81
63439;BME280;49567;48.958;8.294;2023-05-23T02:00:06;100228.78;;;20.94;67.73
63439;BME280;49567;48.958;8.294;2023-05-23T02:02:32;100239.47;;;20.96;67.85
63439;BME280;49567;48.958;8.294;2023-05-23T02:04:58;100242.84;;;20.93;68.04
63439;BME280;49567;48.958;8.294;2023-05-23T02:07:23;100240.84;;;20.85;68.19
63439;BME280;49567;48.958;8.294;2023-05-23T02:09:49;100234.75;;;20.88;68.26
63439;BME280;49567;48.958;8.294;2023-05-23T02:12:14;100236.53;;;20.92;67.97
63439;BME280;49567;48.958;8.294;2023-05-23T02:14:40;100240.25;;;20.88;68.29
63439;BME280;49567;48.958;8.294;2023-05-23T02:17:06;100238.63;;;20.87;68.28
63439;BME280;49567;48.958;8.294;2023-05-23T02:19:34;100245.22;;;20.77;68.62
63439;BME280;49567;48.958;8.294;2023-05-23T02:21:59;100239.19;;;20.75;68.78
63439;BME280;49567;48.958;8.294;2023-05-23T02:24:24;100233.22;;;20.73;68.74
63439;BME280;49567;48.958;8.294;2023-05-23T02:26:50;100245.34;;;20.72;69.02
63439;BME280;49567;48.958;8.294;2023-05-23T02:29:15;100241.69;;;20.85;68.46
63439;BME280;49567;48.958;8.294;2023-05-23T02:31:40;100250.81;;;20.94;68.10
63439;BME280;49567;48.958;8.294;2023-05-23T02:34:05;100250.13;;;20.89;68.29
63439;BME280;49567;48.958;8.294;2023-05-23T02:36:31;100246.88;;;20.87;68.59
63439;BME280;49567;48.958;8.294;2023-05-23T02:38:57;100250.28;;;20.92;68.42
63439;BME280;49567;48.958;8.294;2023-05-23T02:41:22;100242.69;;;20.89;68.39
63439;BME280;49567;48.958;8.294;2023-05-23T02:43:48;100245.88;;;20.83;68.65
63439;BME280;49567;48.958;8.294;2023-05-23T02:46:13;100249.91;;;20.77;68.87
63439;BME280;49567;48.958;8.294;2023-05-23T02:48:38;100248.44;;;20.70;69.04
63439;BME280;49567;48.958;8.294;2023-05-23T02:51:03;100248.06;;;20.63;69.28
63439;BME280;49567;48.958;8.294;2023-05-23T02:53:29;100256.00;;;20.65;69.33
63439;BME280;49567;48.958;8.294;2023-05-23T02:55:54;100252.94;;;20.66;69.21
63439;BME280;49567;48.958;8.294;2023-05-23T02:58:19;100254.06;;;20.65;69.49
63439;BME280;49567;48.958;8.294;2023-05-23T03:00:45;100258.00;;;20.73;69.28
63439;BME280;49567;48.958;8.294;2023-05-23T03:03:10;100248.44;;;20.70;69.38
63439;BME280;49567;48.958;8.294;2023-05-23T03:05:35;100247.47;;;20.75;69.44
63439;BME280;49567;48.958;8.294;2023-05-23T03:08:01;100255.91;;;20.79;69.23
63439;BME280;49567;48.958;8.294;2023-05-23T03:10:29;100255.09;;;20.78;69.29
63439;BME280;49567;48.958;8.294;2023-05-23T03:12:54;100255.72;;;20.75;69.60
63439;BME280;49567;48.958;8.294;2023-05-23T03:15:19;100249.59;;;20.78;69.36
63439;BME280;49567;48.958;8.294;2023-05-23T03:17:45;100258.84;;;20.82;69.36
63439;BME280;49567;48.958;8.294;2023-05-23T03:20:10;100258.84;;;20.82;69.28
63439;BME280;49567;48.958;8.294;2023-05-23T03:22:36;100267.91;;;20.83;69.39
63439;BME280;49567;48.958;8.294;2023-05-23T03:25:01;100265.00;;;20.79;69.40
63439;BME280;49567;48.958;8.294;2023-05-23T03:27:26;100262.06;;;20.76;69.55
63439;BME280;49567;48.958;8.294;2023-05-23T03:29:52;100266.75;;;20.75;69.62
63439;BME280;49567;48.958;8.294;2023-05-23T03:32:17;100265.63;;;20.76;69.29
63439;BME280;49567;48.958;8.294;2023-05-23T03:34:42;100276.47;;;20.73;69.42
63439;BME280;49567;48.958;8.294;2023-05-23T03:37:07;100279.22;;;20.73;69.52
63439;BME280;49567;48.958;8.294;2023-05-23T03:39:33;100283.41;;;20.70;69.51
63439;BME280;49567;48.958;8.294;2023-05-23T03:41:58;100281.31;;;20.67;69.83
63439;BME280;49567;48.958;8.294;2023-05-23T03:44:23;100280.19;;;20.68;69.76
63439;BME280;49567;48.958;8.294;2023-05-23T03:46:48;100281.47;;;20.70;69.66
63439;BME280;49567;48.958;8.294;2023-05-23T03:49:14;100288.09;;;20.69;69.63
63439;BME280;49567;48.958;8.294;2023-05-23T03:51:39;100291.13;;;20.59;69.79
63439;BME280;49567;48.958;8.294;2023-05-23T03:54:05;100290.00;;;20.60;70.09
63439;BME280;49567;48.958;8.294;2023-05-23T03:56:30;100292.56;;;20.57;70.00
63439;BME280;49567;48.958;8.294;2023-05-23T03:58:55;100291.34;;;20.41;70.51
63439;BME280;49567;48.958;8.294;2023-05-23T04:01:21;100290.56;;;20.49;70.38
63439;BME280;49567;48.958;8.294;2023-05-23T04:03:46;100291.13;;;20.59;69.92
63439;BME280;49567;48.958;8.294;2023-05-23T04:06:12;100294.66;;;20.51;70.05
63439;BME280;49567;48.958;8.294;2023-05-23T04:08:37;100293.13;;;20.45;70.44
63439;BME280;49567;48.958;8.294;2023-05-23T04:11:05;100291.91;;;20.51;70.09
63439;BME280;49567;48.958;8.294;2023-05-23T04:13:31;100296.59;;;20.51;69.95
63439;BME280;49567;48.958;8.294;2023-05-23T04:15:59;100292.56;;;20.57;69.79
63439;BME280;49567;48.958;8.294;2023-05-23T04:18:25;100303.25;;;20.58;69.60
63439;BME280;49567;48.958;8.294;2023-05-23T04:20:51;100313.63;;;20.61;69.49
63439;BME280;49567;48.958;8.294;2023-05-23T04:23:16;100305.72;;;20.60;69.44
63439;BME280;49567;48.958;8.294;2023-05-23T04:25:41;100306.19;;;20.62;69.10
63439;BME280;49567;48.958;8.294;2023-05-23T04:28:06;100310.03;;;20.52;69.35
63439;BME280;49567;48.958;8.294;2023-05-23T04:30:34;100316.78;;;20.46;69.55
63439;BME280;49567;48.958;8.294;2023-05-23T04:32:59;100310.53;;;20.54;69.34
63439;BME280;49567;48.958;8.294;2023-05-23T04:35:25;100310.72;;;20.58;69.15
63439;BME280;49567;48.958;8.294;2023-05-23T04:37:53;100304.91;;;20.59;69.26
63439;BME280;49567;48.958;8.294;2023-05-23T04:40:24;100314.97;;;20.64;69.02
63439;BME280;49567;48.958;8.294;2023-05-23T04:42:49;100325.16;;;20.63;69.14
63439;BME280;49567;48.958;8.294;2023-05-23T04:45:16;100324.16;;;20.59;68.98
63439;BME280;49567;48.958;8.294;2023-05-23T04:47:41;100323.53;;;20.62;68.82
63439;BME280;49567;48.958;8.294;2023-05-23T04:50:09;100321.91;;;20.61;68.80
63439;BME280;49567;48.958;8.294;2023-05-23T04:52:35;100334.25;;;20.64;68.69
63439;BME280;49567;48.958;8.294;2023-05-23T04:55:00;100325.66;;;20.65;68.55
63439;BME280;49567;48.958;8.294;2023-05-23T04:57:25;100329.22;;;20.66;68.37
63439;BME280;49567;48.958;8.294;2023-05-23T04:59:51;100327.16;;;20.71;68.00
63439;BME280;49567;48.958;8.294;2023-05-23T05:02:16;100330.28;;;20.79;68.03
63439;BME280;49567;48.958;8.294;2023-05-23T05:04:42;100332.91;;;20.84;67.83
63439;BME280;49567;48.958;8.294;2023-05-23T05:07:07;100331.75;;;20.85;67.76
63439;BME280;49567;48.958;8.294;2023-05-23T05:09:32;100331.44;;;20.86;67.54
63439;BME280;49567;48.958;8.294;2023-05-23T05:11:57;100329.38;;;20.92;66.96
63439;BME280;49567;48.958;8.294;2023-05-23T05:14:24;100332.81;;;20.97;66.68
63439;BME280;49567;48.958;8.294;2023-05-23T05:16:50;100338.00;;;20.99;66.42
63439;BME280;49567;48.958;8.294;2023-05-23T05:19:15;100341.88;;;20.98;66.35
63439;BME280;49567;48.958;8.294;2023-05-23T05:21:41;100353.41;;;21.00;66.32
63439;BME280;49567;48.958;8.294;2023-05-23T05:24:06;100345.13;;;21.00;66.22
63439;BME280;49567;48.958;8.294;2023-05-23T05:26:34;100341.25;;;21.01;66.31
63439;BME280;49567;48.958;8.294;2023-05-23T05:29:00;100343.38;;;21.04;66.17
63439;BME280;49567;48.958;8.294;2023-05-23T05:31:26;100347.09;;;21.08;66.09
63439;BME280;49567;48.958;8.294;2023-05-23T05:33:51;100347.09;;;21.08;65.80
63439;BME280;49567;48.958;8.294;2023-05-23T05:36:18;100348.25;;;21.07;65.88
63439;BME280;49567;48.958;8.294;2023-05-23T05:38:44;100355.38;;;21.08;65.80
63439;BME280;49567;48.958;8.294;2023-05-23T05:41:09;100352.34;;;21.09;65.33
63439;BME280;49567;48.958;8.294;2023-05-23T05:43:35;100349.59;;;21.09;65.22
63439;BME280;49567;48.958;8.294;2023-05-23T05:46:00;100362.03;;;21.07;65.39
63439;BME280;49567;48.958;8.294;2023-05-23T05:48:25;100363.97;;;21.06;65.33
63439;BME280;49567;48.958;8.294;2023-05-23T05:50:51;100357.34;;;21.07;65.27
63439;BME280;49567;48.958;8.294;2023-05-23T05:53:16;100364.66;;;21.12;64.99
63439;BME280;49567;48.958;8.294;2023-05-23T05:55:41;100367.44;;;21.12;64.48
63439;BME280;49567;48.958;8.294;2023-05-23T05:58:07;100364.53;;;21.17;64.18
63439;BME280;49567;48.958;8.294;2023-05-23T06:00:32;100370.56;;;21.28;63.64
63439;BME280;49567;48.958;8.294;2023-05-23T06:02:58;100367.03;;;21.36;62.96
63439;BME280;49567;48.958;8.294;2023-05-23T06:05:24;100375.63;;;21.34;62.65
63439;BME280;49567;48.958;8.294;2023-05-23T06:07:50;100379.53;;;21.33;62.51
63439;BME280;49567;48.958;8.294;2023-05-23T06:10:16;100376.44;;;21.35;62.34
63439;BME280;49567;48.958;8.294;2023-05-23T06:12:41;100382.59;;;21.32;62.44
63439;BME280;49567;48.958;8.294;2023-05-23T06:15:07;100377.44;;;21.39;61.76
63439;BME280;49567;48.958;8.294;2023-05-23T06:17:33;100390.75;;;21.45;61.31
63439;BME280;49567;48.958;8.294;2023-05-23T06:19:59;100393.50;;;21.45;60.78
63439;BME280;49567;48.958;8.294;2023-05-23T06:22:24;100389.47;;;21.43;60.74
63439;BME280;49567;48.958;8.294;2023-05-23T06:24:49;100395.59;;;21.40;60.75
63439;BME280;49567;48.958;8.294;2023-05-23T06:27:14;100404.28;;;21.25;60.75
63439;BME280;49567;48.958;8.294;2023-05-23T06:29:40;100401.69;;;21.19;60.85
63439;BME280;49567;48.958;8.294;2023-05-23T06:32:05;100407.03;;;21.25;60.68
63439;BME280;49567;48.958;8.294;2023-05-23T06:34:31;100414.34;;;21.20;60.97
63439;BME280;49567;48.958;8.294;2023-05-23T06:36:56;100410.63;;;21.25;60.75
63439;BME280;49567;48.958;8.294;2023-05-23T06:39:21;100419.53;;;21.31;60.36
63439;BME280;49567;48.958;8.294;2023-05-23T06:41:46;100424.28;;;21.30;60.22
63439;BME280;49567;48.958;8.294;2023-05-23T06:44:12;100429.84;;;21.47;59.39
63439;BME280;49567;48.958;8.294;2023-05-23T06:46:37;100433.41;;;21.48;58.93
63439;BME280;49567;48.958;8.294;2023-05-23T06:49:03;100438.00;;;21.52;58.98
63439;BME280;49567;48.958;8.294;2023-05-23T06:51:28;100437.50;;;21.50;59.05
63439;BME280;49567;48.958;8.294;2023-05-23T06:53:53;100446.38;;;21.47;59.29
63439;BME280;49567;48.958;8.294;2023-05-23T06:56:21;100440.25;;;21.50;59.28
63439;BME280;49567;48.958;8.294;2023-05-23T06:58:46;100446.44;;;21.56;59.17
63439;BME280;49567;48.958;8.294;2023-05-23T07:01:11;100454.19;;;21.54;59.08
63439;BME280;49567;48.958;8.294;2023-05-23T07:03:37;100459.22;;;21.52;58.62
63439;BME280;49567;48.958;8.294;2023-05-23T07:06:05;100453.69;;;21.43;58.37
63439;BME280;49567;48.958;8.294;2023-05-23T07:08:31;100453.00;;;21.38;58.39
63439;BME280;49567;48.958;8.294;2023-05-23T07:10:56;100464.16;;;21.33;58.46
63439;BME280;49567;48.958;8.294;2023-05-23T07:13:21;100467.84;;;21.28;58.71
63439;BME280;49567;48.958;8.294;2023-05-23T07:15:46;100467.22;;;21.31;58.09
63439;BME280;49567;48.958;8.294;2023-05-23T07:18:12;100473.25;;;21.33;57.82
63439;BME280;49567;48.958;8.294;2023-05-23T07:20:37;100470.69;;;21.37;57.72
63439;BME280;49567;48.958;8.294;2023-05-23T07:23:02;100472.91;;;21.35;58.07
63439;BME280;49567;48.958;8.294;2023-05-23T07:25:28;100470.81;;;21.32;58.24
63439;BME280;49567;48.958;8.294;2023-05-23T07:27:53;100475.03;;;21.38;57.66
63439;BME280;49567;48.958;8.294;2023-05-23T07:30:19;100484.19;;;21.47;57.29
63439;BME280;49567;48.958;8.294;2023-05-23T07:32:46;100483.75;;;21.53;56.21
63439;BME280;49567;48.958;8.294;2023-05-23T07:35:12;100486.97;;;21.55;56.26
63439;BME280;49567;48.958;8.294;2023-05-23T07:37:38;100485.03;;;21.56;56.01
63439;BME280;49567;48.958;8.294;2023-05-23T07:40:04;100487.28;;;21.54;55.58
63439;BME280;49567;48.958;8.294;2023-05-23T07:42:29;100495.41;;;21.50;55.70
63439;BME280;49567;48.958;8.294;2023-05-23T07:44:55;100489.28;;;21.62;55.09
63439;BME280;49567;48.958;8.294;2023-05-23T07:47:20;100488.09;;;21.54;55.41
63439;BME280;49567;48.958;8.294;2023-05-23T07:49:45;100488.44;;;21.53;54.92
63439;BME280;49567;48.958;8.294;2023-05-23T07:52:11;100488.63;;;21.56;54.79
63439;BME280;49567;48.958;8.294;2023-05-23T07:54:37;100486.84;;;21.60;54.64
63439;BME280;49567;48.958;8.294;2023-05-23T07:57:02;100501.00;;;21.67;54.49
63439;BME280;49567;48.958;8.294;2023-05-23T07:59:27;100485.31;;;21.77;54.15
63439;BME280;49567;48.958;8.294;2023-05-23T08:01:54;100484.66;;;21.80;54.41
63439;BME280;49567;48.958;8.294;2023-05-23T08:04:19;100485.19;;;21.90;53.73
63439;BME280;49567;48.958;8.294;2023-05-23T08:06:45;100495.00;;;21.74;54.22
63439;BME280;49567;48.958;8.294;2023-05-23T08:09:13;100500.63;;;21.60;54.07
63439;BME280;49567;48.958;8.294;2023-05-23T08:11:39;100496.06;;;21.56;54.26
63439;BME280;49567;48.958;8.294;2023-05-23T08:14:04;100497.59;;;21.70;54.47
63439;BME280;49567;48.958;8.294;2023-05-23T08:16:30;100500.88;;;21.72;54.54
63439;BME280;49567;48.958;8.294;2023-05-23T08:18:55;100494.53;;;21.72;54.59
63439;BME280;49567;48.958;8.294;2023-05-23T08:21:20;100495.16;;;21.69;54.49
63439;BME280;49567;48.958;8.294;2023-05-23T08:23:45;100506.88;;;21.74;54.42
63439;BME280;49567;48.958;8.294;2023-05-23T08:26:11;100510.59;;;21.70;54.31
63439;BME280;49567;48.958;8.294;2023-05-23T08:28:36;100511.84;;;21.64;54.14
63439;BME280;49567;48.958;8.294;2023-05-23T08:31:01;100520.94;;;21.64;54.37
63439;BME280;49567;48.958;8.294;2023-05-23T08:33:27;100509.22;;;21.59;54.07
63439;BME280;49567;48.958;8.294;2023-05-23T08:35:52;100518.81;;;21.61;54.33
63439;BME280;49567;48.958;8.294;2023-05-23T08:38:18;100520.16;;;21.72;53.98
63439;BME280;49567;48.958;8.294;2023-05-23T08:40:49;100518.56;;;21.80;53.92
63439;BME280;49567;48.958;8.294;2023-05-23T08:43:18;100532.34;;;21.80;54.08
63439;BME280;49567;48.958;8.294;2023-05-23T08:45:44;100530.50;;;21.67;54.09
63439;BME280;49567;48.958;8.294;2023-05-23T08:48:12;100529.81;;;21.53;54.31
63439;BME280;49567;48.958;8.294;2023-05-23T08:50:39;100545.84;;;21.51;54.39
63439;BME280;49567;48.958;8.294;2023-05-23T08:53:06;100535.63;;;21.51;54.14
63439;BME280;49567;48.958;8.294;2023-05-23T08:55:33;100533.88;;;21.55;53.97
63439;BME280;49567;48.958;8.294;2023-05-23T08:57:59;100536.47;;;21.60;53.89
63439;BME280;49567;48.958;8.294;2023-05-23T09:00:25;100533.31;;;21.76;53.32
63439;BME280;49567;48.958;8.294;2023-05-23T09:02:50;100536.09;;;21.76;53.28
63439;BME280;49567;48.958;8.294;2023-05-23T09:05:16;100535.53;;;21.65;53.73
63439;BME280;49567;48.958;8.294;2023-05-23T09:07:44;100538.97;;;21.70;53.70
63439;BME280;49567;48.958;8.294;2023-05-23T09:10:12;100539.84;;;21.80;52.96
63439;BME280;49567;48.958;8.294;2023-05-23T09:12:38;100535.16;;;21.89;52.52
63439;BME280;49567;48.958;8.294;2023-05-23T09:15:05;100536.06;;;22.06;52.44
63439;BME280;49567;48.958;8.294;2023-05-23T09:17:31;100536.00;;;22.29;51.88
63439;BME280;49567;48.958;8.294;2023-05-23T09:19:57;100538.75;;;22.37;51.77
63439;BME280;49567;48.958;8.294;2023-05-23T09:22:23;100539.09;;;22.36;51.65
63439;BME280;49567;48.958;8.294;2023-05-23T09:24:51;100536.50;;;22.39;51.52
63439;BME280;49567;48.958;8.294;2023-05-23T09:27:17;100542.34;;;22.38;51.34
63439;BME280;49567;48.958;8.294;2023-05-23T09:29:42;100541.50;;;22.29;51.15
63439;BME280;49567;48.958;8.294;2023-05-23T09:32:17;100541.34;;;22.25;50.70
63439;BME280;49567;48.958;8.294;2023-05-23T09:37:15;100552.22;;;22.21;50.19
63439;BME280;49567;48.958;8.294;2023-05-23T09:39:45;100547.22;;;22.32;50.00
63439;BME280;49567;48.958;8.294;2023-05-23T09:42:10;100544.13;;;22.34;49.78
63439;BME280;49567;48.958;8.294;2023-05-23T09:44:40;100544.47;;;22.41;49.76
63439;BME280;49567;48.958;8.294;2023-05-23T09:47:06;100550.63;;;22.38;49.69
63439;BME280;49567;48.958;8.294;2023-05-23T09:49:31;100544.94;;;22.43;49.32
63439;BME280;49567;48.958;8.294;2023-05-23T09:51:57;100541.34;;;22.34;49.45
63439;BME280;49567;48.958;8.294;2023-05-23T09:54:23;100544.81;;;22.39;49.50
63439;BME280;49567;48.958;8.294;2023-05-23T09:56:51;100552.25;;;22.39;49.21
63439;BME280;49567;48.958;8.294;2023-05-23T09:59:19;100554.22;;;22.38;49.50
63439;BME280;49567;48.958;8.294;2023-05-23T10:01:50;100562.44;;;22.30;49.58
63439;BME280;49567;48.958;8.294;2023-05-23T10:04:20;100558.09;;;22.37;49.44
63439;BME280;49567;48.958;8.294;2023-05-23T10:06:52;100550.97;;;22.53;49.34
63439;BME280;49567;48.958;8.294;2023-05-23T10:09:20;100547.91;;;22.63;49.16
63439;BME280;49567;48.958;8.294;2023-05-23T10:14:34;100555.72;;;22.61;48.80
63439;BME280;49567;48.958;8.294;2023-05-23T10:17:18;100553.31;;;22.68;48.81
63439;BME280;49567;48.958;8.294;2023-05-23T10:19:49;100551.84;;;22.80;48.97
63439;BME280;49567;48.958;8.294;2023-05-23T10:22:18;100548.63;;;22.78;48.90
63439;BME280;49567;48.958;8.294;2023-05-23T10:24:44;100542.28;;;22.86;48.85
63439;BME280;49567;48.958;8.294;2023-05-23T10:27:10;100547.91;;;23.58;47.66
63439;BME280;49567;48.958;8.294;2023-05-23T10:29:36;100542.69;;;24.70;45.77
63439;BME280;49567;48.958;8.294;2023-05-23T10:32:04;100551.66;;;25.50;44.16
63439;BME280;49567;48.958;8.294;2023-05-23T10:37:34;100548.09;;;26.55;41.79
63439;BME280;49567;48.958;8.294;2023-05-23T10:40:09;100544.56;;;26.94;40.95
63439;BME280;49567;48.958;8.294;2023-05-23T10:42:58;100540.66;;;27.11;39.62
63439;BME280;49567;48.958;8.294;2023-05-23T10:45:26;100538.94;;;26.54;40.36
63439;BME280;49567;48.958;8.294;2023-05-23T10:47:52;100541.81;;;25.85;41.42
63439;BME280;49567;48.958;8.294;2023-05-23T10:50:34;100549.72;;;25.29;42.79
63439;BME280;49567;48.958;8.294;2023-05-23T10:53:02;100552.00;;;24.95;43.43
63439;BME280;49567;48.958;8.294;2023-05-23T10:55:35;100552.94;;;24.99;42.93
63439;BME280;49567;48.958;8.294;2023-05-23T10:58:20;100548.03;;;25.70;42.45
63439;BME280;49567;48.958;8.294;2023-05-23T11:01:00;100551.69;;;26.43;41.35
63439;BME280;49567;48.958;8.294;2023-05-23T11:03:52;100544.72;;;26.61;40.52
63439;BME280;49567;48.958;8.294;2023-05-23T11:06:42;100539.66;;;26.39;40.51
63439;BME280;49567;48.958;8.294;2023-05-23T11:09:16;100545.63;;;25.68;41.76
63439;BME280;49567;48.958;8.294;2023-05-23T11:11:53;100551.63;;;25.17;42.61
63439;BME280;49567;48.958;8.294;2023-05-23T11:14:21;100536.75;;;24.80;43.28
63439;BME280;49567;48.958;8.294;2023-05-23T11:16:55;100538.63;;;24.67;43.42
63439;BME280;49567;48.958;8.294;2023-05-23T11:19:21;100539.22;;;24.52;43.70
63439;BME280;49567;48.958;8.294;2023-05-23T11:21:53;100541.50;;;24.30;44.44
63439;BME280;49567;48.958;8.294;2023-05-23T11:24:19;100543.69;;;24.07;44.59
63439;BME280;49567;48.958;8.294;2023-05-23T11:26:52;100544.47;;;24.07;45.15
63439;BME280;49567;48.958;8.294;2023-05-23T11:29:25;100539.91;;;24.11;45.25
63439;BME280;49567;48.958;8.294;2023-05-23T11:31:50;100543.69;;;24.15;45.32
63439;BME280;49567;48.958;8.294;2023-05-23T11:34:17;100537.25;;;24.32;45.03
63439;BME280;49567;48.958;8.294;2023-05-23T11:36:42;100541.06;;;24.48;44.81
63439;BME280;49567;48.958;8.294;2023-05-23T11:39:08;100534.50;;;24.53;45.16
63439;BME280;49567;48.958;8.294;2023-05-23T11:41:34;100536.78;;;25.54;43.71
63439;BME280;49567;48.958;8.294;2023-05-23T11:43:59;100523.06;;;27.34;39.73
63439;BME280;49567;48.958;8.294;2023-05-23T11:46:26;100531.84;;;27.64;39.10
63439;BME280;49567;48.958;8.294;2023-05-23T11:48:51;100527.75;;;27.74;37.59
63439;BME280;49567;48.958;8.294;2023-05-23T11:51:17;100525.84;;;26.67;39.45
63439;BME280;49567;48.958;8.294;2023-05-23T11:53:44;100526.50;;;25.67;41.29
63439;BME280;49567;48.958;8.294;2023-05-23T11:56:09;100528.13;;;25.02;42.98
63439;BME280;49567;48.958;8.294;2023-05-23T11:58:36;100527.53;;;24.47;44.27
63439;BME280;49567;48.958;8.294;2023-05-23T12:01:03;100535.31;;;24.24;45.17
63439;BME280;49567;48.958;8.294;2023-05-23T12:03:29;100534.28;;;23.99;45.56
63439;BME280;49567;48.958;8.294;2023-05-23T12:05:56;100529.09;;;23.89;45.63
63439;BME280;49567;48.958;8.294;2023-05-23T12:08:21;100528.50;;;23.84;46.27
63439;BME280;49567;48.958;8.294;2023-05-23T12:10:57;100525.41;;;23.76;46.29
63439;BME280;49567;48.958;8.294;2023-05-23T12:13:24;100528.66;;;23.78;46.41
63439;BME280;49567;48.958;8.294;2023-05-23T12:15:58;100527.84;;;23.78;46.33
63439;BME280;49567;48.958;8.294;2023-05-23T12:18:28;100528.97;;;23.86;46.35
63439;BME280;49567;48.958;8.294;2023-05-23T12:20:54;100527.78;;;23.95;45.74
63439;BME280;49567;48.958;8.294;2023-05-23T12:23:23;100525.31;;;24.02;44.71
63439;BME280;49567;48.958;8.294;2023-05-23T12:25:51;100527.25;;;24.02;44.96
63439;BME280;49567;48.958;8.294;2023-05-23T12:28:16;100528.03;;;24.11;44.77
63439;BME280;49567;48.958;8.294;2023-05-23T12:30:42;100523.09;;;24.25;44.32
63439;BME280;49567;48.958;8.294;2023-05-23T12:33:08;100528.47;;;24.30;44.45
63439;BME280;49567;48.958;8.294;2023-05-23T12:35:34;100523.44;;;24.23;44.41
63439;BME280;49567;48.958;8.294;2023-05-23T12:37:59;100523.66;;;24.10;44.64
63439;BME280;49567;48.958;8.294;2023-05-23T12:40:25;100518.13;;;24.01;44.51
63439;BME280;49567;48.958;8.294;2023-05-23T12:42:52;100521.13;;;23.88;45.26
63439;BME280;49567;48.958;8.294;2023-05-23T12:45:38;100518.13;;;24.01;45.73
63439;BME280;49567;48.958;8.294;2023-05-23T12:48:04;100521.66;;;24.19;45.32
63439;BME280;49567;48.958;8.294;2023-05-23T12:50:30;100515.38;;;24.39;45.02
63439;BME280;49567;48.958;8.294;2023-05-23T12:52:55;100516.84;;;24.57;44.39
63439;BME280;49567;48.958;8.294;2023-05-23T12:55:21;100514.38;;;24.64;44.34
63439;BME280;49567;48.958;8.294;2023-05-23T12:57:46;100514.41;;;24.85;44.16
63439;BME280;49567;48.958;8.294;2023-05-23T13:00:12;100508.84;;;25.06;43.41
63439;BME280;49567;48.958;8.294;2023-05-23T13:02:37;100502.97;;;25.19;43.29
63439;BME280;49567;48.958;8.294;2023-05-23T13:05:04;100501.94;;;25.12;42.60